Parsival — V2MS — position and weather

sailwx.info

Track history (hours):
 
Tides and Currents Weather Stations Pressure Air Temp Water Temp Dewpoint Dewpoint Depression Visibility Wind Speed Wind Dir Waves Ship Positions

Parsival

Last reported at 2014-Aug-22 13:33 UTC. Time now 2014-Aug-22 13:46 UTC.
Position N 51°43' W 002°29'.

; draft 4.2 m.

Type: Cargo ship. MMSI: 304010881.

Date/timePositionNaut miles runAvg speedWind from/ knotsBaromVisibWave heightAir tempDewpointWater temp
2014-Aug-22 13:33N 51°43' W 002°29'0 0.0
2014-Aug-22 12:33N 51°43' W 002°29'0 0.0
2014-Aug-22 11:33N 51°43' W 002°29'0 0.0
2014-Aug-22 10:30N 51°43' W 002°29'0 0.0
2014-Aug-22 08:27N 51°43' W 002°29'0 0.0
2014-Aug-22 07:33N 51°43' W 002°29'0 0.0
2014-Aug-22 06:33N 51°43' W 002°29'0 0.0
2014-Aug-22 05:33N 51°43' W 002°29'0 0.0
2014-Aug-22 04:33N 51°43' W 002°29'0 0.0
2014-Aug-22 03:33N 51°43' W 002°29'0 0.0
2014-Aug-22 02:33N 51°43' W 002°29'0 0.0
2014-Aug-22 01:33N 51°43' W 002°29'0 0.0
2014-Aug-22 00:33N 51°43' W 002°29'0 0.0
2014-Aug-21 23:33N 51°43' W 002°29'0 0.0
2014-Aug-21 22:27N 51°43' W 002°29'0 0.0
2014-Aug-21 21:33N 51°43' W 002°29'0 0.0
2014-Aug-21 20:33N 51°43' W 002°29'0 0.0
2014-Aug-21 19:33N 51°43' W 002°29'0 0.0
2014-Aug-21 18:27N 51°43' W 002°29'0 0.0
2014-Aug-21 17:21N 51°43' W 002°29'0 0.0
2014-Aug-21 16:33N 51°43' W 002°29'0 0.0
2014-Aug-21 15:33N 51°43' W 002°29'0 0.0
2014-Aug-21 14:24N 51°43' W 002°29'0 0.0
2014-Aug-21 13:30N 51°43' W 002°29'0 0.0
2014-Aug-21 12:33N 51°43' W 002°29'0 0.0
2014-Aug-21 11:33N 51°43' W 002°29'0 0.0
2014-Aug-21 10:33N 51°43' W 002°29'0 0.0
2014-Aug-21 09:33N 51°43' W 002°29'0 0.0
2014-Aug-21 08:33N 51°43' W 002°29'0 0.0
2014-Aug-21 07:33N 51°43' W 002°29'0 0.0
2014-Aug-21 06:33N 51°43' W 002°29'0 0.2
2014-Aug-21 05:33N 51°43' W 002°29'0 0.0
2014-Aug-21 04:29N 51°43' W 002°29'2 2.0
2014-Aug-21 03:24N 51°41' W 002°31'8 9.5
2014-Aug-21 02:33N 51°36' W 002°40'1111.1
2014-Aug-21 01:33N 51°28' W 002°53'1211.4
2014-Aug-21 00:33N 51°23' W 003°10'9 0.8
2014-Aug-20 13:19N 51°19' W 003°22'88 8.9
2014-Aug-20 03:31N 50°37' W 005°24'  
2014-Aug-13 01:30N 37°05' W 001°30'36 8.8
2014-Aug-12 21:28N 37°33' W 001°01'  
Track history (hours):
 
Tides and Currents Weather Stations Pressure Air Temp Water Temp Dewpoint Dewpoint Depression Visibility Wind Speed Wind Dir Waves Ship Positions

Parsival

Last reported at 2014-Aug-22 13:33 UTC. Time now 2014-Aug-22 13:46 UTC.
Position N 51°43' W 002°29'.

; draft 4.2 m.

Type: Cargo ship. MMSI: 304010881.

Date/timePositionNaut miles runAvg speedWind from/ knotsBaromVisibWave heightAir tempDewpointWater temp
2014-Aug-22 13:33N 51°43' W 002°29'0 0.0
2014-Aug-22 12:33N 51°43' W 002°29'0 0.0
2014-Aug-22 11:33N 51°43' W 002°29'0 0.0
2014-Aug-22 10:30N 51°43' W 002°29'0 0.0
2014-Aug-22 08:27N 51°43' W 002°29'0 0.0
2014-Aug-22 07:33N 51°43' W 002°29'0 0.0
2014-Aug-22 06:33N 51°43' W 002°29'0 0.0
2014-Aug-22 05:33N 51°43' W 002°29'0 0.0
2014-Aug-22 04:33N 51°43' W 002°29'0 0.0
2014-Aug-22 03:33N 51°43' W 002°29'0 0.0
2014-Aug-22 02:33N 51°43' W 002°29'0 0.0
2014-Aug-22 01:33N 51°43' W 002°29'0 0.0
2014-Aug-22 00:33N 51°43' W 002°29'0 0.0
2014-Aug-21 23:33N 51°43' W 002°29'0 0.0
2014-Aug-21 22:27N 51°43' W 002°29'0 0.0
2014-Aug-21 21:33N 51°43' W 002°29'0 0.0
2014-Aug-21 20:33N 51°43' W 002°29'0 0.0
2014-Aug-21 19:33N 51°43' W 002°29'0 0.0
2014-Aug-21 18:27N 51°43' W 002°29'0 0.0
2014-Aug-21 17:21N 51°43' W 002°29'0 0.0
2014-Aug-21 16:33N 51°43' W 002°29'0 0.0
2014-Aug-21 15:33N 51°43' W 002°29'0 0.0
2014-Aug-21 14:24N 51°43' W 002°29'0 0.0
2014-Aug-21 13:30N 51°43' W 002°29'0 0.0
2014-Aug-21 12:33N 51°43' W 002°29'0 0.0
2014-Aug-21 11:33N 51°43' W 002°29'0 0.0
2014-Aug-21 10:33N 51°43' W 002°29'0 0.0
2014-Aug-21 09:33N 51°43' W 002°29'0 0.0
2014-Aug-21 08:33N 51°43' W 002°29'0 0.0
2014-Aug-21 07:33N 51°43' W 002°29'0 0.0
2014-Aug-21 06:33N 51°43' W 002°29'0 0.2
2014-Aug-21 05:33N 51°43' W 002°29'0 0.0
2014-Aug-21 04:29N 51°43' W 002°29'2 2.0
2014-Aug-21 03:24N 51°41' W 002°31'8 9.5
2014-Aug-21 02:33N 51°36' W 002°40'1111.1
2014-Aug-21 01:33N 51°28' W 002°53'1211.4
2014-Aug-21 00:33N 51°23' W 003°10'9 0.8
2014-Aug-20 13:19N 51°19' W 003°22'88 8.9
2014-Aug-20 03:31N 50°37' W 005°24'  
2014-Aug-13 01:30N 37°05' W 001°30'36 8.8
2014-Aug-12 21:28N 37°33' W 001°01'  

Dump ship's entire track history